Portada
METAR-TAF:

METAR-TAF

Aeropuertos :

Cognac, Francia

latitud: 45-40N, longitud: 000-19W, altitud: 30 m

Observación

El informe se hizo hace 29 minutos, a las 15:30 UTC
Viento 8 kt del norte-noreste, variando entre norte y este-noreste
Temperatura 8°C
Humedad 49%
Presión 1011 hPa
Visibilidad: 8000 m

METAR: LFBG 241530Z AUTO 03008KT 360V060 8000 NSC 08/M02 Q1011

Hora: 16:59 (15:59 UTC)

Pronóstico

El informe se hizo hace 31 horas y 59 minutos, a las 08:00 UTC
Pronóstico válido del 23 a las 09 UTC al 24 a las 09 UTC
Viento 8 kt del norte-noreste
Visibilidad 10 km o más
Cielo nuboso a una altura de 4500 ft

TAF: LFBG 230800Z 2309/2409 02008KT 9999 BKN045

Observaciones y pronósticos meteorológicos de más de 4000 aeropuertos (mensajes METAR y TAF).

Los puntos amarillos y rojos representan las estaciones disponibles.

Ponga el ratón en el punto deseado para ver el nombre de la estación.

Haga clic para ver las observaciones y los pronósticos meteorológicos.

Para cambiar el mapa : haga clic en los botones verdes con una cruz de color negro para hacer un zoom, en el botón verde con un guión para alejar o en las flechas verdes para mapas adyacentes.


METAR-TAF: